Time;durP1;ratioP1;P1;durP2;ratioP2;P2;SDS_P1;SDS_P2;PMS_P1;PMS_P2;Temp;Humidity;BMP_temperature;BMP_pressure;BME280_temperature;BME280_humidity;BME280_pressure;Samples;Min_cycle;Max_cycle;Signal;HPM_P1;HPM_P2
2022/02/28 00:01:43;;;;;;;13.98;7.40;;;;;;;;;;5097719;28;20488;-65
2022/02/28 00:04:09;;;;;;;18.48;7.97;;;;;;;;;;5097881;28;20182;-65
2022/02/28 00:06:34;;;;;;;14.25;8.13;;;;;;;;;;5097568;28;20167;-65
2022/02/28 00:09:00;;;;;;;15.70;7.85;;;;;;;;;;5097316;28;20658;-65
2022/02/28 00:11:26;;;;;;;15.00;8.63;;;;;;;;;;5098067;28;20240;-66
2022/02/28 00:13:52;;;;;;;18.50;8.23;;;;;;;;;;5098306;28;20193;-66
2022/02/28 00:16:18;;;;;;;18.88;7.65;;;;;;;;;;5098505;28;20160;-65
2022/02/28 00:18:44;;;;;;;14.68;8.18;;;;;;;;;;5098063;28;20168;-65
2022/02/28 00:21:10;;;;;;;17.05;7.95;;;;;;;;;;5097658;28;20183;-65
2022/02/28 00:23:36;;;;;;;13.15;7.82;;;;;;;;;;5098034;28;20155;-64
2022/02/28 00:26:02;;;;;;;16.95;8.75;;;;;;;;;;5097761;28;20202;-66
2022/02/28 00:28:28;;;;;;;13.43;8.02;;;;;;;;;;5098029;28;20172;-66
2022/02/28 00:30:54;;;;;;;14.82;7.88;;;;;;;;;;5097062;28;20241;-65
2022/02/28 00:33:20;;;;;;;15.00;7.50;;;;;;;;;;5096752;28;20588;-64
2022/02/28 00:35:46;;;;;;;15.93;8.38;;;;;;;;;;5097154;28;20175;-65
2022/02/28 00:38:12;;;;;;;14.02;7.47;;;;;;;;;;5096261;28;20209;-66
2022/02/28 00:40:39;;;;;;;18.08;8.05;;;;;;;;;;5096874;28;20159;-65
2022/02/28 00:43:04;;;;;;;12.85;7.95;;;;;;;;;;5097012;28;20159;-65
2022/02/28 00:45:30;;;;;;;15.82;7.75;;;;;;;;;;5096661;28;20255;-65
2022/02/28 00:47:56;;;;;;;16.45;8.93;;;;;;;;;;5096543;28;20168;-65
2022/02/28 00:50:22;;;;;;;15.85;8.45;;;;;;;;;;5096520;28;20163;-65
2022/02/28 00:52:48;;;;;;;15.80;8.50;;;;;;;;;;5096398;28;20171;-64
2022/02/28 00:55:14;;;;;;;16.10;8.82;;;;;;;;;;5095225;28;20163;-63
2022/02/28 00:57:40;;;;;;;18.75;9.20;;;;;;;;;;5095236;28;20178;-63
2022/02/28 01:00:08;;;;;;;15.30;8.07;;;;;;;;;;5094288;28;20224;-62
2022/02/28 01:02:34;;;;;;;17.77;8.32;;;;;;;;;;5093904;28;20179;-63
2022/02/28 01:05:00;;;;;;;14.02;8.30;;;;;;;;;;5094348;28;20171;-63
2022/02/28 01:07:26;;;;;;;15.05;8.10;;;;;;;;;;5093911;28;20194;-63
2022/02/28 01:09:52;;;;;;;17.88;8.95;;;;;;;;;;5093714;28;20282;-63
2022/02/28 01:12:18;;;;;;;15.63;9.27;;;;;;;;;;5093985;28;20172;-63
2022/02/28 01:14:44;;;;;;;21.77;9.35;;;;;;;;;;5093733;28;20163;-63
2022/02/28 01:17:10;;;;;;;15.25;8.93;;;;;;;;;;5093756;28;20603;-63
2022/02/28 01:19:36;;;;;;;18.35;8.95;;;;;;;;;;5092931;28;20257;-63
2022/02/28 01:22:03;;;;;;;16.08;8.93;;;;;;;;;;5093588;28;20266;-63
2022/02/28 01:24:29;;;;;;;21.63;9.27;;;;;;;;;;5094000;28;20156;-63
2022/02/28 01:26:55;;;;;;;18.55;9.35;;;;;;;;;;5093418;28;20190;-63
2022/02/28 01:29:21;;;;;;;17.92;9.20;;;;;;;;;;5093985;28;20163;-62
2022/02/28 01:31:47;;;;;;;14.82;8.77;;;;;;;;;;5094354;28;20175;-62
2022/02/28 01:34:13;;;;;;;18.13;9.30;;;;;;;;;;5093866;28;20499;-63
2022/02/28 01:36:39;;;;;;;17.00;9.45;;;;;;;;;;5093760;28;20295;-63
2022/02/28 01:39:05;;;;;;;19.75;8.90;;;;;;;;;;5094004;28;20244;-63
2022/02/28 01:41:31;;;;;;;18.27;9.60;;;;;;;;;;5093809;28;20241;-63
2022/02/28 01:43:57;;;;;;;20.27;10.48;;;;;;;;;;5093949;28;20189;-62
2022/02/28 01:46:23;;;;;;;20.75;9.52;;;;;;;;;;5093494;28;20584;-63
2022/02/28 01:48:49;;;;;;;15.07;8.88;;;;;;;;;;5093378;28;20626;-63
2022/02/28 01:51:15;;;;;;;20.48;8.95;;;;;;;;;;5096987;28;20167;-63
2022/02/28 01:53:41;;;;;;;18.83;9.13;;;;;;;;;;5097551;28;20163;-63
2022/02/28 01:56:07;;;;;;;15.57;9.48;;;;;;;;;;5097329;28;20228;-63
2022/02/28 01:58:34;;;;;;;17.15;8.93;;;;;;;;;;5097592;28;20171;-63
2022/02/28 02:01:00;;;;;;;15.20;9.27;;;;;;;;;;5097121;28;20191;-63
2022/02/28 02:03:26;;;;;;;15.98;8.65;;;;;;;;;;5097303;28;20232;-63
2022/02/28 02:05:52;;;;;;;20.45;10.15;;;;;;;;;;5097334;28;20171;-63
2022/02/28 02:08:18;;;;;;;17.85;9.75;;;;;;;;;;5097149;28;20267;-63
2022/02/28 02:10:44;;;;;;;19.08;9.82;;;;;;;;;;5097031;28;20600;-63
2022/02/28 02:13:11;;;;;;;25.27;10.65;;;;;;;;;;5097023;28;20599;-63
2022/02/28 02:15:38;;;;;;;20.67;9.63;;;;;;;;;;5096835;28;20171;-63
2022/02/28 02:18:04;;;;;;;17.35;10.02;;;;;;;;;;5096893;28;20213;-63
2022/02/28 02:20:30;;;;;;;19.35;9.80;;;;;;;;;;5097119;28;20167;-63
2022/02/28 02:22:59;;;;;;;20.73;9.93;;;;;;;;;;5096725;28;20244;-63
2022/02/28 02:25:26;;;;;;;21.77;11.30;;;;;;;;;;5096745;28;20175;-63
2022/02/28 02:27:52;;;;;;;16.95;10.10;;;;;;;;;;5096654;28;20187;-63
2022/02/28 02:30:18;;;;;;;23.25;10.32;;;;;;;;;;5096795;28;20468;-63
2022/02/28 02:32:44;;;;;;;20.85;10.32;;;;;;;;;;5096611;28;20156;-63
2022/02/28 02:35:13;;;;;;;18.63;10.70;;;;;;;;;;5096981;28;20622;-63
2022/02/28 02:37:39;;;;;;;21.15;10.93;;;;;;;;;;5096572;28;20174;-63
2022/02/28 02:40:05;;;;;;;19.33;10.48;;;;;;;;;;5096621;28;20602;-62
2022/02/28 02:42:31;;;;;;;21.15;10.57;;;;;;;;;;5096412;28;20270;-62
2022/02/28 02:44:57;;;;;;;21.38;10.65;;;;;;;;;;5096622;28;20252;-62
2022/02/28 02:47:23;;;;;;;21.65;10.98;;;;;;;;;;5096279;28;20175;-62
2022/02/28 02:49:49;;;;;;;22.05;10.75;;;;;;;;;;5096694;28;20502;-62
2022/02/28 02:52:16;;;;;;;23.90;11.60;;;;;;;;;;5096144;28;20171;-62
2022/02/28 02:54:42;;;;;;;26.30;11.85;;;;;;;;;;5096227;28;20182;-62
2022/02/28 02:57:08;;;;;;;21.55;11.40;;;;;;;;;;5096065;28;20172;-63
2022/02/28 02:59:34;;;;;;;22.63;11.07;;;;;;;;;;5096056;28;20192;-63
2022/02/28 03:02:00;;;;;;;21.85;10.68;;;;;;;;;;5095265;28;20501;-62
2022/02/28 03:04:26;;;;;;;22.95;11.93;;;;;;;;;;5096966;28;20609;-62
2022/02/28 03:06:52;;;;;;;20.40;11.68;;;;;;;;;;5096311;28;20179;-62
2022/02/28 03:09:18;;;;;;;23.23;10.93;;;;;;;;;;5096319;28;20168;-62
2022/02/28 03:11:45;;;;;;;22.40;11.52;;;;;;;;;;5096033;28;20494;-62
2022/02/28 03:14:11;;;;;;;25.15;12.52;;;;;;;;;;5095966;28;20163;-62
2022/02/28 03:16:38;;;;;;;23.38;10.93;;;;;;;;;;5095709;28;20182;-62
2022/02/28 03:19:04;;;;;;;23.70;11.38;;;;;;;;;;5095913;28;20182;-62
2022/02/28 03:21:30;;;;;;;22.40;12.00;;;;;;;;;;5095625;28;20278;-61
2022/02/28 03:23:56;;;;;;;21.02;11.82;;;;;;;;;;5095695;28;20661;-62
2022/02/28 03:26:22;;;;;;;25.10;12.65;;;;;;;;;;5095487;28;20186;-63
2022/02/28 03:28:48;;;;;;;23.63;11.30;;;;;;;;;;5095837;28;20164;-63
2022/02/28 03:31:14;;;;;;;20.30;11.73;;;;;;;;;;5095506;28;20163;-62
2022/02/28 03:33:40;;;;;;;27.10;12.10;;;;;;;;;;5095534;28;20167;-62
2022/02/28 03:36:06;;;;;;;27.55;12.23;;;;;;;;;;5095589;28;20599;-62
2022/02/28 03:38:32;;;;;;;22.45;12.02;;;;;;;;;;5095440;28;20175;-63
2022/02/28 03:40:58;;;;;;;21.42;11.65;;;;;;;;;;5095381;28;20191;-63
2022/02/28 03:43:24;;;;;;;27.38;12.75;;;;;;;;;;5095349;28;20159;-63
2022/02/28 03:45:50;;;;;;;20.30;11.43;;;;;;;;;;5095383;28;20160;-63
2022/02/28 03:48:15;;;;;;;23.15;12.15;;;;;;;;;;5095046;28;20240;-63
2022/02/28 03:50:42;;;;;;;25.02;12.25;;;;;;;;;;5095154;28;20480;-63
2022/02/28 03:53:08;;;;;;;23.77;11.68;;;;;;;;;;5095015;28;20250;-63
2022/02/28 03:55:34;;;;;;;26.00;12.13;;;;;;;;;;5095304;28;20202;-63
2022/02/28 03:58:00;;;;;;;22.92;11.45;;;;;;;;;;5095209;28;20178;-63
2022/02/28 04:00:26;;;;;;;23.20;11.27;;;;;;;;;;5094186;28;20163;-63
2022/02/28 04:02:52;;;;;;;25.33;11.52;;;;;;;;;;5094983;28;20199;-63
2022/02/28 04:05:19;;;;;;;23.63;11.82;;;;;;;;;;5095031;28;20231;-64
2022/02/28 04:07:47;;;;;;;23.80;11.50;;;;;;;;;;5095089;28;20163;-63
2022/02/28 04:10:13;;;;;;;21.05;11.55;;;;;;;;;;5095254;28;20176;-63
2022/02/28 04:12:39;;;;;;;23.98;11.65;;;;;;;;;;5094701;28;20245;-63
2022/02/28 04:15:05;;;;;;;22.50;11.15;;;;;;;;;;5095248;28;20167;-63
2022/02/28 04:17:31;;;;;;;29.23;12.23;;;;;;;;;;5094777;28;20164;-63
2022/02/28 04:19:57;;;;;;;22.20;11.35;;;;;;;;;;5094883;28;20166;-63
2022/02/28 04:22:23;;;;;;;22.25;10.60;;;;;;;;;;5094836;28;20525;-63
2022/02/28 04:24:49;;;;;;;22.20;11.60;;;;;;;;;;5094880;28;20238;-63
2022/02/28 04:27:15;;;;;;;25.15;12.13;;;;;;;;;;5094417;28;20619;-62
2022/02/28 04:29:42;;;;;;;24.42;11.43;;;;;;;;;;5094551;28;20175;-62
2022/02/28 04:32:08;;;;;;;27.05;11.30;;;;;;;;;;5094613;28;20190;-62
2022/02/28 04:34:34;;;;;;;20.25;11.35;;;;;;;;;;5094935;28;20670;-64
2022/02/28 04:37:00;;;;;;;21.45;10.55;;;;;;;;;;5094422;28;20168;-64
2022/02/28 04:39:26;;;;;;;20.77;11.38;;;;;;;;;;5094635;28;20167;-65
2022/02/28 04:41:52;;;;;;;20.42;11.40;;;;;;;;;;5094231;28;20196;-65
2022/02/28 04:44:18;;;;;;;18.33;10.35;;;;;;;;;;5094826;28;20567;-65
2022/02/28 04:46:44;;;;;;;25.73;12.52;;;;;;;;;;5094454;28;20160;-65
2022/02/28 04:49:10;;;;;;;23.95;11.13;;;;;;;;;;5094515;28;20159;-65
2022/02/28 04:51:36;;;;;;;25.58;11.23;;;;;;;;;;5094453;28;20168;-65
2022/02/28 04:54:02;;;;;;;21.65;11.88;;;;;;;;;;5094583;28;20175;-65
2022/02/28 04:56:28;;;;;;;22.08;11.07;;;;;;;;;;5097946;28;20174;-63
2022/02/28 04:58:54;;;;;;;22.65;11.80;;;;;;;;;;5095276;28;20163;-66
2022/02/28 05:01:20;;;;;;;22.08;11.13;;;;;;;;;;5095067;28;20495;-63
2022/02/28 05:03:46;;;;;;;22.75;11.00;;;;;;;;;;5095266;28;20247;-65
2022/02/28 05:06:11;;;;;;;19.67;10.50;;;;;;;;;;5095631;28;20167;-64
2022/02/28 05:08:37;;;;;;;23.90;11.35;;;;;;;;;;5095598;28;20456;-64
2022/02/28 05:11:03;;;;;;;22.58;11.27;;;;;;;;;;5095310;28;20172;-64
2022/02/28 05:13:31;;;;;;;27.70;11.65;;;;;;;;;;5095137;28;20159;-64
2022/02/28 05:15:57;;;;;;;20.50;10.68;;;;;;;;;;5095159;28;20167;-64
2022/02/28 05:18:23;;;;;;;19.45;11.23;;;;;;;;;;5094820;28;20175;-64
2022/02/28 05:20:48;;;;;;;21.48;10.95;;;;;;;;;;5092927;28;20175;-64
2022/02/28 05:23:14;;;;;;;24.27;12.20;;;;;;;;;;5094102;28;20195;-64
2022/02/28 05:25:40;;;;;;;23.98;12.05;;;;;;;;;;5092970;28;20163;-64
2022/02/28 05:28:06;;;;;;;28.17;12.25;;;;;;;;;;5093935;28;20234;-65
2022/02/28 05:30:32;;;;;;;25.33;11.40;;;;;;;;;;5093572;28;20170;-64
2022/02/28 05:32:58;;;;;;;21.85;11.30;;;;;;;;;;5093552;28;20217;-64
2022/02/28 05:35:24;;;;;;;21.73;11.57;;;;;;;;;;5093794;28;20167;-64
2022/02/28 05:37:50;;;;;;;22.27;11.43;;;;;;;;;;5094120;28;20250;-64
2022/02/28 05:40:16;;;;;;;20.00;10.93;;;;;;;;;;5093864;28;20483;-64
2022/02/28 05:42:42;;;;;;;22.85;12.00;;;;;;;;;;5093866;28;20287;-64
2022/02/28 05:45:09;;;;;;;21.95;11.50;;;;;;;;;;5093532;28;20221;-65
2022/02/28 05:47:35;;;;;;;21.40;11.18;;;;;;;;;;5093616;28;20233;-64
2022/02/28 05:50:01;;;;;;;23.77;11.57;;;;;;;;;;5094385;28;20596;-64
2022/02/28 05:52:27;;;;;;;23.27;11.80;;;;;;;;;;5093881;28;20508;-64
2022/02/28 05:54:53;;;;;;;24.95;11.63;;;;;;;;;;5093742;28;20266;-64
2022/02/28 05:57:18;;;;;;;23.92;12.23;;;;;;;;;;5093464;28;20220;-64
2022/02/28 05:59:44;;;;;;;22.35;11.43;;;;;;;;;;5093530;28;20254;-64
2022/02/28 06:02:10;;;;;;;22.15;11.73;;;;;;;;;;5093381;28;20595;-64
2022/02/28 06:04:36;;;;;;;22.25;11.95;;;;;;;;;;5093572;28;20171;-64
2022/02/28 06:07:02;;;;;;;23.20;12.27;;;;;;;;;;5093934;28;20155;-64
2022/02/28 06:09:28;;;;;;;22.35;11.88;;;;;;;;;;5093603;28;20220;-64
2022/02/28 06:11:54;;;;;;;21.58;11.52;;;;;;;;;;5093531;28;20242;-65
2022/02/28 06:14:20;;;;;;;22.60;11.95;;;;;;;;;;5093468;28;20631;-65
2022/02/28 06:16:47;;;;;;;23.35;11.45;;;;;;;;;;5093424;28;20168;-64
2022/02/28 06:19:13;;;;;;;23.00;11.95;;;;;;;;;;5093233;28;20180;-63
2022/02/28 06:21:39;;;;;;;23.85;12.10;;;;;;;;;;5093525;28;20244;-64
2022/02/28 06:24:05;;;;;;;23.85;11.88;;;;;;;;;;5093210;28;20493;-64
2022/02/28 06:26:31;;;;;;;25.80;12.52;;;;;;;;;;5093104;28;20222;-64
2022/02/28 06:28:57;;;;;;;25.00;12.10;;;;;;;;;;5093308;28;20195;-64
2022/02/28 06:31:23;;;;;;;21.05;11.95;;;;;;;;;;5093218;28;20167;-63
2022/02/28 06:33:49;;;;;;;25.63;13.00;;;;;;;;;;5093399;28;20183;-65
2022/02/28 06:36:15;;;;;;;29.23;12.40;;;;;;;;;;5093516;28;20466;-64
2022/02/28 06:38:41;;;;;;;21.17;11.73;;;;;;;;;;5096775;28;20189;-64
2022/02/28 06:41:09;;;;;;;22.52;12.30;;;;;;;;;;5097141;28;20187;-63
2022/02/28 06:43:34;;;;;;;24.92;11.38;;;;;;;;;;5096999;28;20167;-64
2022/02/28 06:46:00;;;;;;;23.30;11.93;;;;;;;;;;5096714;28;20235;-65
2022/02/28 06:48:26;;;;;;;21.88;11.93;;;;;;;;;;5096877;28;20160;-64
2022/02/28 06:50:52;;;;;;;26.38;12.88;;;;;;;;;;5096659;28;20171;-62
2022/02/28 06:53:19;;;;;;;23.17;12.60;;;;;;;;;;5097021;28;20160;-65
2022/02/28 06:55:45;;;;;;;24.42;11.93;;;;;;;;;;5096865;28;20171;-64
2022/02/28 06:58:11;;;;;;;24.00;12.35;;;;;;;;;;5097945;28;20712;-67
2022/02/28 07:00:37;;;;;;;23.48;12.98;;;;;;;;;;5097024;28;20217;-65
2022/02/28 07:03:03;;;;;;;23.58;11.65;;;;;;;;;;5096318;28;20223;-65
2022/02/28 07:05:30;;;;;;;23.40;11.82;;;;;;;;;;5096436;28;20688;-64
2022/02/28 07:07:56;;;;;;;24.75;13.02;;;;;;;;;;5096716;28;20196;-64
2022/02/28 07:10:24;;;;;;;23.83;12.35;;;;;;;;;;5101639;28;20448;-65
2022/02/28 07:12:50;;;;;;;23.58;11.82;;;;;;;;;;5115146;28;20199;-65
2022/02/28 07:15:16;;;;;;;23.40;11.73;;;;;;;;;;5115208;28;20186;-65
2022/02/28 07:17:42;;;;;;;22.33;12.18;;;;;;;;;;5114946;28;20168;-65
2022/02/28 07:20:09;;;;;;;23.70;12.45;;;;;;;;;;5111961;28;20178;-64
2022/02/28 07:22:35;;;;;;;20.80;11.77;;;;;;;;;;5113424;28;20183;-64
2022/02/28 07:25:01;;;;;;;23.38;12.73;;;;;;;;;;5114806;28;20197;-65
2022/02/28 07:27:27;;;;;;;19.73;11.30;;;;;;;;;;5115416;28;20228;-65
2022/02/28 07:29:53;;;;;;;22.23;11.65;;;;;;;;;;5115074;28;20220;-65
2022/02/28 07:32:19;;;;;;;21.25;11.43;;;;;;;;;;5116239;28;20227;-65
2022/02/28 07:34:45;;;;;;;20.40;10.70;;;;;;;;;;5115527;28;20179;-65
2022/02/28 07:37:11;;;;;;;22.90;11.80;;;;;;;;;;5117885;28;20220;-65
2022/02/28 07:39:37;;;;;;;19.50;10.65;;;;;;;;;;5117550;28;20554;-65
2022/02/28 07:42:03;;;;;;;19.52;11.15;;;;;;;;;;5113506;28;20206;-65
2022/02/28 07:44:29;;;;;;;18.52;10.43;;;;;;;;;;5095370;28;20171;-63
2022/02/28 07:46:55;;;;;;;19.48;10.38;;;;;;;;;;5095319;28;20160;-64
2022/02/28 07:49:22;;;;;;;21.45;10.93;;;;;;;;;;5094991;28;20243;-65
2022/02/28 07:51:48;;;;;;;20.95;10.98;;;;;;;;;;5095608;28;20178;-65
2022/02/28 07:54:14;;;;;;;18.77;10.88;;;;;;;;;;5095332;28;20163;-65
2022/02/28 07:56:39;;;;;;;16.95;9.88;;;;;;;;;;5094965;28;20165;-65
2022/02/28 07:59:05;;;;;;;16.25;9.82;;;;;;;;;;5094957;28;20256;-65
2022/02/28 08:01:31;;;;;;;17.27;10.65;;;;;;;;;;5093788;28;20190;-65
2022/02/28 08:03:57;;;;;;;18.30;9.82;;;;;;;;;;5094018;28;20199;-65
2022/02/28 08:06:24;;;;;;;18.10;10.00;;;;;;;;;;5094763;28;20665;-64
2022/02/28 08:08:50;;;;;;;19.95;10.05;;;;;;;;;;5094892;28;20596;-65
2022/02/28 08:11:16;;;;;;;17.90;9.57;;;;;;;;;;5094803;28;20174;-65
2022/02/28 08:13:41;;;;;;;18.02;10.13;;;;;;;;;;5094713;28;20164;-65
2022/02/28 08:16:07;;;;;;;17.20;9.60;;;;;;;;;;5094714;28;20163;-64
2022/02/28 08:18:33;;;;;;;17.80;9.68;;;;;;;;;;5094864;28;20197;-65
2022/02/28 08:20:59;;;;;;;16.10;9.07;;;;;;;;;;5094941;28;20172;-65
2022/02/28 08:23:25;;;;;;;17.75;9.48;;;;;;;;;;5094868;28;20180;-64
2022/02/28 08:25:51;;;;;;;15.52;9.00;;;;;;;;;;5094897;28;20183;-65
2022/02/28 08:28:19;;;;;;;16.27;9.13;;;;;;;;;;5095174;28;20152;-64
2022/02/28 08:30:44;;;;;;;14.13;8.93;;;;;;;;;;5095556;28;20506;-65
2022/02/28 08:33:10;;;;;;;15.25;8.90;;;;;;;;;;5114386;28;20159;-65
2022/02/28 08:35:36;;;;;;;14.88;8.73;;;;;;;;;;5111704;28;20167;-64
2022/02/28 08:38:04;;;;;;;16.83;9.02;;;;;;;;;;5110196;28;20191;-64
2022/02/28 08:40:30;;;;;;;13.93;8.57;;;;;;;;;;5112152;28;20223;-64
2022/02/28 08:42:56;;;;;;;13.20;8.00;;;;;;;;;;5113741;28;20188;-64
2022/02/28 08:45:22;;;;;;;13.30;8.27;;;;;;;;;;5113343;28;20198;-64
2022/02/28 08:47:48;;;;;;;14.73;8.38;;;;;;;;;;5112186;28;20171;-65
2022/02/28 08:50:16;;;;;;;15.15;8.65;;;;;;;;;;5114462;28;20155;-64
2022/02/28 08:52:42;;;;;;;14.35;8.27;;;;;;;;;;5115128;28;20199;-64
2022/02/28 08:55:08;;;;;;;13.40;8.40;;;;;;;;;;5115621;28;20271;-63
2022/02/28 08:57:36;;;;;;;15.90;8.05;;;;;;;;;;5115230;28;20163;-64
2022/02/28 09:00:02;;;;;;;13.60;8.13;;;;;;;;;;5115209;28;20167;-64
2022/02/28 09:02:27;;;;;;;12.93;7.22;;;;;;;;;;5101743;28;20187;-62
2022/02/28 09:04:53;;;;;;;10.77;7.13;;;;;;;;;;5094275;28;20159;-64
2022/02/28 09:07:19;;;;;;;12.30;7.22;;;;;;;;;;5094579;28;20168;-65
2022/02/28 09:09:45;;;;;;;9.85;6.95;;;;;;;;;;5094646;28;20160;-65
2022/02/28 09:12:11;;;;;;;10.27;6.55;;;;;;;;;;5094048;28;20623;-65
2022/02/28 09:14:38;;;;;;;9.93;6.50;;;;;;;;;;5094059;28;20601;-65
2022/02/28 09:17:05;;;;;;;11.27;6.88;;;;;;;;;;5094181;28;20254;-65
2022/02/28 09:19:31;;;;;;;10.50;7.00;;;;;;;;;;5094151;28;20172;-66
2022/02/28 09:21:57;;;;;;;11.88;6.57;;;;;;;;;;5094239;28;20193;-65
2022/02/28 09:24:23;;;;;;;11.55;7.72;;;;;;;;;;5094436;28;20205;-66
2022/02/28 09:26:49;;;;;;;8.68;6.10;;;;;;;;;;5094080;28;20239;-65
2022/02/28 09:29:15;;;;;;;9.18;6.40;;;;;;;;;;5094077;28;20167;-64
2022/02/28 09:31:41;;;;;;;9.05;6.35;;;;;;;;;;5093758;28;20175;-64
2022/02/28 09:34:07;;;;;;;11.30;6.43;;;;;;;;;;5093794;28;20178;-64
2022/02/28 09:36:33;;;;;;;11.38;6.60;;;;;;;;;;5093716;28;20250;-65
2022/02/28 09:38:59;;;;;;;10.48;6.22;;;;;;;;;;5105467;22;20211;-65
2022/02/28 09:41:26;;;;;;;9.75;6.63;;;;;;;;;;5093973;28;20210;-65
2022/02/28 09:43:53;;;;;;;9.90;6.32;;;;;;;;;;5099631;22;20280;-64
2022/02/28 09:46:19;;;;;;;10.50;6.57;;;;;;;;;;5093683;28;20174;-64
2022/02/28 09:48:46;;;;;;;9.73;6.22;;;;;;;;;;5093679;28;20159;-64
2022/02/28 09:51:12;;;;;;;10.18;6.68;;;;;;;;;;5093725;28;20211;-64
2022/02/28 09:53:38;;;;;;;9.98;6.13;;;;;;;;;;5093678;28;20163;-64
2022/02/28 09:56:04;;;;;;;10.60;6.43;;;;;;;;;;5093400;28;20178;-65
2022/02/28 09:58:31;;;;;;;9.15;5.68;;;;;;;;;;5093576;28;20160;-65
2022/02/28 10:00:57;;;;;;;9.93;5.80;;;;;;;;;;5093573;28;20189;-65
2022/02/28 10:03:30;;;;;;;9.20;5.80;;;;;;;;;;5094000;28;20167;-64
2022/02/28 10:06:01;;;;;;;9.07;6.05;;;;;;;;;;5094311;28;20163;-64
2022/02/28 10:08:40;;;;;;;9.35;6.63;;;;;;;;;;5095737;28;20588;-65
2022/02/28 10:11:25;;;;;;;8.00;5.45;;;;;;;;;;5095878;28;20518;-64
2022/02/28 10:13:52;;;;;;;8.23;5.80;;;;;;;;;;5098394;28;20164;-64
2022/02/28 10:16:29;;;;;;;10.40;5.63;;;;;;;;;;5098449;28;20190;-64
2022/02/28 10:18:55;;;;;;;8.27;5.53;;;;;;;;;;5098077;28;20168;-64
2022/02/28 10:21:37;;;;;;;8.85;5.35;;;;;;;;;;5097848;28;20233;-64
2022/02/28 10:24:03;;;;;;;8.05;5.60;;;;;;;;;;5098192;28;20643;-64
2022/02/28 10:26:37;;;;;;;7.85;5.82;;;;;;;;;;5097718;28;20583;-63
2022/02/28 10:29:07;;;;;;;8.73;5.57;;;;;;;;;;5097252;28;20162;-65
2022/02/28 10:31:40;;;;;;;7.72;4.97;;;;;;;;;;5097095;28;20172;-65
2022/02/28 10:34:12;;;;;;;7.20;5.15;;;;;;;;;;5097324;28;20254;-65
2022/02/28 10:36:39;;;;;;;6.97;5.00;;;;;;;;;;5095801;28;20186;-62
2022/02/28 10:39:10;;;;;;;9.35;6.00;;;;;;;;;;5095754;28;20171;-61
2022/02/28 10:41:36;;;;;;;9.23;5.88;;;;;;;;;;5096926;28;20188;-62
2022/02/28 10:44:03;;;;;;;8.43;5.22;;;;;;;;;;5096934;28;20179;-62
2022/02/28 10:46:39;;;;;;;8.52;5.65;;;;;;;;;;5096745;28;20247;-62
2022/02/28 10:49:15;;;;;;;7.97;5.57;;;;;;;;;;5097074;28;20289;-62
2022/02/28 10:51:51;;;;;;;8.63;5.55;;;;;;;;;;5096873;28;20172;-62
2022/02/28 10:54:20;;;;;;;7.55;5.40;;;;;;;;;;5097086;28;20527;-62
2022/02/28 10:57:06;;;;;;;7.70;5.40;;;;;;;;;;5096604;28;20177;-62
2022/02/28 10:59:34;;;;;;;9.00;5.90;;;;;;;;;;5096214;28;20254;-61
2022/02/28 11:02:00;;;;;;;7.88;4.90;;;;;;;;;;5096507;28;20186;-62
2022/02/28 11:04:31;;;;;;;7.82;5.18;;;;;;;;;;5097175;28;20175;-62
2022/02/28 11:06:57;;;;;;;7.28;5.32;;;;;;;;;;5096639;28;20187;-62
2022/02/28 11:09:30;;;;;;;7.60;5.55;;;;;;;;;;5096944;28;20167;-60
2022/02/28 11:12:00;;;;;;;6.60;4.97;;;;;;;;;;5096710;28;20164;-62
2022/02/28 11:14:26;;;;;;;9.60;5.35;;;;;;;;;;5097015;28;20148;-60
2022/02/28 11:16:52;;;;;;;8.02;4.93;;;;;;;;;;5096599;28;20198;-60
2022/02/28 11:19:18;;;;;;;7.47;4.70;;;;;;;;;;5096369;28;20203;-60
2022/02/28 11:21:44;;;;;;;7.43;4.82;;;;;;;;;;5096428;28;20191;-61
2022/02/28 11:24:10;;;;;;;7.97;4.93;;;;;;;;;;5095775;28;20217;-62
2022/02/28 11:26:37;;;;;;;7.35;5.30;;;;;;;;;;5096249;28;20542;-62
2022/02/28 11:29:03;;;;;;;8.10;4.47;;;;;;;;;;5096677;28;20174;-62
2022/02/28 11:31:29;;;;;;;6.95;4.72;;;;;;;;;;5096207;28;20463;-62
2022/02/28 11:34:01;;;;;;;6.30;4.78;;;;;;;;;;5095566;28;20217;-62
2022/02/28 11:36:27;;;;;;;7.88;4.88;;;;;;;;;;5095768;28;20285;-62
2022/02/28 11:38:53;;;;;;;8.15;4.65;;;;;;;;;;5095488;28;20168;-62
2022/02/28 11:41:19;;;;;;;7.88;5.00;;;;;;;;;;5095269;28;20184;-62
2022/02/28 11:43:47;;;;;;;7.20;5.15;;;;;;;;;;5095263;28;20183;-62
2022/02/28 11:46:15;;;;;;;8.02;5.20;;;;;;;;;;5095398;28;20170;-62
2022/02/28 11:48:46;;;;;;;7.68;5.15;;;;;;;;;;5095578;28;20463;-62
2022/02/28 11:51:22;;;;;;;8.85;5.20;;;;;;;;;;5095512;28;20171;-62
2022/02/28 11:53:52;;;;;;;7.07;5.10;;;;;;;;;;5095062;28;20160;-61
2022/02/28 11:56:18;;;;;;;7.65;4.68;;;;;;;;;;5095493;28;20586;-61
2022/02/28 11:59:03;;;;;;;7.57;4.90;;;;;;;;;;5095303;28;20168;-61
2022/02/28 12:01:30;;;;;;;7.15;4.47;;;;;;;;;;5095047;28;20587;-61
2022/02/28 12:04:08;;;;;;;8.32;5.20;;;;;;;;;;5095077;28;20156;-61
2022/02/28 12:06:52;;;;;;;6.88;4.50;;;;;;;;;;5095364;28;20167;-61
2022/02/28 12:09:33;;;;;;;6.38;4.38;;;;;;;;;;5095519;28;20156;-61
2022/02/28 12:12:19;;;;;;;8.73;4.72;;;;;;;;;;5094826;28;20174;-60
2022/02/28 12:14:57;;;;;;;7.35;4.93;;;;;;;;;;5095211;28;20270;-61
2022/02/28 12:17:36;;;;;;;8.48;4.57;;;;;;;;;;5094885;28;20168;-61
2022/02/28 12:20:13;;;;;;;6.13;4.70;;;;;;;;;;5095066;28;20591;-62
2022/02/28 12:22:55;;;;;;;6.20;4.53;;;;;;;;;;5094612;28;20196;-61
2022/02/28 12:25:33;;;;;;;7.40;4.25;;;;;;;;;;5094536;28;20487;-61
2022/02/28 12:28:15;;;;;;;7.30;4.78;;;;;;;;;;5094493;28;20465;-61
2022/02/28 12:30:45;;;;;;;7.88;4.53;;;;;;;;;;5095164;28;20171;-62
2022/02/28 12:33:12;;;;;;;6.15;4.32;;;;;;;;;;5094311;28;20514;-62
2022/02/28 12:35:39;;;;;;;8.65;5.07;;;;;;;;;;5094696;28;20171;-60
2022/02/28 12:38:05;;;;;;;7.07;4.88;;;;;;;;;;5094252;28;20174;-62
2022/02/28 12:40:31;;;;;;;5.88;4.25;;;;;;;;;;5094279;28;20160;-61
2022/02/28 12:42:57;;;;;;;7.30;5.00;;;;;;;;;;5094014;28;20260;-62
2022/02/28 12:45:25;;;;;;;8.93;5.35;;;;;;;;;;5094446;28;20167;-62
2022/02/28 12:47:52;;;;;;;6.55;4.32;;;;;;;;;;5094387;28;20168;-62
2022/02/28 12:50:18;;;;;;;6.63;4.50;;;;;;;;;;5094230;28;20159;-62
2022/02/28 12:52:51;;;;;;;5.97;3.95;;;;;;;;;;5094174;28;20228;-62
2022/02/28 12:55:17;;;;;;;8.05;4.38;;;;;;;;;;5094444;28;20229;-61
2022/02/28 12:57:43;;;;;;;7.00;4.65;;;;;;;;;;5094139;28;20554;-62
2022/02/28 13:00:10;;;;;;;6.65;4.88;;;;;;;;;;5094098;28;20163;-62
2022/02/28 13:02:37;;;;;;;5.72;4.45;;;;;;;;;;5093773;28;20184;-62
2022/02/28 13:05:04;;;;;;;5.95;4.32;;;;;;;;;;5094251;28;20191;-62
2022/02/28 13:07:31;;;;;;;7.07;4.78;;;;;;;;;;5093948;28;20605;-62
2022/02/28 13:09:57;;;;;;;7.07;4.65;;;;;;;;;;5094205;28;20168;-62
2022/02/28 13:12:30;;;;;;;7.07;4.57;;;;;;;;;;5094056;28;20176;-62
2022/02/28 13:14:56;;;;;;;7.55;4.88;;;;;;;;;;5094006;28;20164;-62
2022/02/28 13:17:27;;;;;;;6.70;4.65;;;;;;;;;;5094105;28;20164;-61
2022/02/28 13:19:55;;;;;;;5.93;4.10;;;;;;;;;;5094418;28;20160;-61
2022/02/28 13:22:22;;;;;;;6.43;4.50;;;;;;;;;;5094084;28;20625;-61
2022/02/28 13:24:48;;;;;;;5.95;4.47;;;;;;;;;;5094572;28;20583;-61
2022/02/28 13:27:15;;;;;;;7.32;4.80;;;;;;;;;;5095079;28;20243;-62
2022/02/28 13:29:41;;;;;;;6.45;4.30;;;;;;;;;;5095086;28;20163;-62
2022/02/28 13:32:14;;;;;;;6.32;4.18;;;;;;;;;;5095274;28;20163;-62
2022/02/28 13:34:41;;;;;;;6.80;5.28;;;;;;;;;;5094664;28;20160;-62
2022/02/28 13:37:17;;;;;;;6.65;4.95;;;;;;;;;;5100116;22;20235;-61
2022/02/28 13:39:44;;;;;;;7.68;5.05;;;;;;;;;;5095423;28;20159;-62
2022/02/28 13:42:13;;;;;;;6.47;4.70;;;;;;;;;;5095183;28;20202;-61
2022/02/28 13:44:41;;;;;;;6.63;4.63;;;;;;;;;;5096175;28;20155;-62
2022/02/28 13:47:11;;;;;;;7.85;5.15;;;;;;;;;;5101240;28;20509;-61
2022/02/28 13:49:39;;;;;;;7.35;4.63;;;;;;;;;;5111681;22;20218;-62
2022/02/28 13:52:06;;;;;;;5.80;4.53;;;;;;;;;;5101860;28;20277;-62
2022/02/28 13:54:32;;;;;;;6.65;4.38;;;;;;;;;;5100303;28;20174;-62
2022/02/28 13:57:31;;;;;;;7.15;4.35;;;;;;;;;;5098656;28;20159;-62
2022/02/28 14:00:13;;;;;;;6.22;4.68;;;;;;;;;;5075197;28;20275;-61
2022/02/28 14:02:58;;;;;;;6.57;4.72;;;;;;;;;;5075189;28;20204;-62
2022/02/28 14:05:26;;;;;;;6.38;4.45;;;;;;;;;;5075180;28;20519;-62
2022/02/28 14:07:56;;;;;;;6.47;4.00;;;;;;;;;;5075193;28;20551;-62
2022/02/28 14:10:26;;;;;;;5.43;4.22;;;;;;;;;;5075196;28;20608;-61
2022/02/28 14:12:52;;;;;;;7.45;4.25;;;;;;;;;;5074989;28;20180;-61
2022/02/28 14:15:22;;;;;;;6.53;4.30;;;;;;;;;;5075199;28;20190;-61
2022/02/28 14:17:58;;;;;;;5.75;4.20;;;;;;;;;;5075053;28;20168;-61
2022/02/28 14:20:25;;;;;;;7.72;4.07;;;;;;;;;;5075223;28;20191;-61
2022/02/28 14:23:04;;;;;;;5.53;3.40;;;;;;;;;;5075544;28;20216;-61
2022/02/28 14:25:30;;;;;;;6.03;4.13;;;;;;;;;;5075280;28;20248;-62
2022/02/28 14:27:56;;;;;;;6.05;3.53;;;;;;;;;;5075272;28;20531;-62
2022/02/28 14:30:22;;;;;;;5.63;3.80;;;;;;;;;;5074920;28;20172;-61